sensor_id;sensor_type;location;lat;lon;timestamp;pressure;altitude;pressure_sealevel;temperature;humidity
28921;BME280;16035;53.594;9.952;2023-08-21T00:01:00;102155.47;;;19.94;66.37
28921;BME280;16035;53.594;9.952;2023-08-21T00:03:00;102155.47;;;19.94;66.36
28921;BME280;16035;53.594;9.952;2023-08-21T00:05:01;102157.72;;;19.92;66.59
28921;BME280;16035;53.594;9.952;2023-08-21T00:07:01;102158.28;;;19.89;66.53
28921;BME280;16035;53.594;9.952;2023-08-21T00:09:02;102160.78;;;19.85;66.64
28921;BME280;16035;53.594;9.952;2023-08-21T00:11:03;102159.44;;;19.83;66.76
28921;BME280;16035;53.594;9.952;2023-08-21T00:13:04;102152.25;;;19.82;66.75
28921;BME280;16035;53.594;9.952;2023-08-21T00:15:05;102149.28;;;19.78;66.87
28921;BME280;16035;53.594;9.952;2023-08-21T00:17:06;102160.59;;;19.77;67.03
28921;BME280;16035;53.594;9.952;2023-08-21T00:19:06;102155.38;;;19.75;66.88
28921;BME280;16035;53.594;9.952;2023-08-21T00:21:07;102155.13;;;19.72;67.18
28921;BME280;16035;53.594;9.952;2023-08-21T00:23:07;102160.63;;;19.72;67.17
28921;BME280;16035;53.594;9.952;2023-08-21T00:25:08;102157.34;;;19.69;67.79
28921;BME280;16035;53.594;9.952;2023-08-21T00:27:09;102159.03;;;19.65;67.06
28921;BME280;16035;53.594;9.952;2023-08-21T00:29:09;102160.41;;;19.63;67.23
28921;BME280;16035;53.594;9.952;2023-08-21T00:31:09;102162.88;;;19.59;67.49
28921;BME280;16035;53.594;9.952;2023-08-21T00:33:10;102162.88;;;19.59;67.45
28921;BME280;16035;53.594;9.952;2023-08-21T00:35:10;102164.56;;;19.55;67.49
28921;BME280;16035;53.594;9.952;2023-08-21T00:37:11;102162.13;;;19.54;67.45
28921;BME280;16035;53.594;9.952;2023-08-21T00:39:11;102164.06;;;19.53;67.51
28921;BME280;16035;53.594;9.952;2023-08-21T00:41:11;102159.91;;;19.51;67.74
28921;BME280;16035;53.594;9.952;2023-08-21T00:43:12;102161.34;;;19.48;67.80
28921;BME280;16035;53.594;9.952;2023-08-21T00:45:12;102168.53;;;19.44;67.89
28921;BME280;16035;53.594;9.952;2023-08-21T00:47:12;102159.69;;;19.42;67.92
28921;BME280;16035;53.594;9.952;2023-08-21T00:49:13;102161.63;;;19.41;67.92
28921;BME280;16035;53.594;9.952;2023-08-21T00:51:15;102164.41;;;19.41;68.12
28921;BME280;16035;53.594;9.952;2023-08-21T00:53:16;102165.81;;;19.39;67.91
28921;BME280;16035;53.594;9.952;2023-08-21T00:55:16;102162.50;;;19.37;67.96
28921;BME280;16035;53.594;9.952;2023-08-21T00:57:17;102156.19;;;19.31;68.13
28921;BME280;16035;53.594;9.952;2023-08-21T00:59:19;102166.16;;;19.27;68.23
28921;BME280;16035;53.594;9.952;2023-08-21T01:01:23;102165.31;;;19.27;68.26
28921;BME280;16035;53.594;9.952;2023-08-21T01:03:25;102177.47;;;19.26;68.21
28921;BME280;16035;53.594;9.952;2023-08-21T01:05:25;102174.44;;;19.22;68.43
28921;BME280;16035;53.594;9.952;2023-08-21T01:07:26;102169.22;;;19.21;68.54
28921;BME280;16035;53.594;9.952;2023-08-21T01:11:58;102165.41;;;19.16;68.76
28921;BME280;16035;53.594;9.952;2023-08-21T01:14:18;102166.78;;;19.14;68.97
28921;BME280;16035;53.594;9.952;2023-08-21T01:16:21;102168.72;;;19.13;68.69
28921;BME280;16035;53.594;9.952;2023-08-21T01:18:22;102167.88;;;19.13;68.89
28921;BME280;16035;53.594;9.952;2023-08-21T01:20:23;102168.44;;;19.10;68.72
28921;BME280;16035;53.594;9.952;2023-08-21T01:22:27;102178.13;;;19.07;68.82
28921;BME280;16035;53.594;9.952;2023-08-21T01:24:27;102169.84;;;19.07;68.63
28921;BME280;16035;53.594;9.952;2023-08-21T01:26:28;102176.75;;;19.05;68.98
28921;BME280;16035;53.594;9.952;2023-08-21T01:28:29;102174.28;;;19.03;68.85
28921;BME280;16035;53.594;9.952;2023-08-21T01:30:30;102172.09;;;19.00;69.64
28921;BME280;16035;53.594;9.952;2023-08-21T01:35:08;102179.28;;;18.96;69.08
28921;BME280;16035;53.594;9.952;2023-08-21T01:37:10;102174.88;;;18.95;69.05
28921;BME280;16035;53.594;9.952;2023-08-21T01:39:11;102180.69;;;18.93;69.25
28921;BME280;16035;53.594;9.952;2023-08-21T01:41:11;102179.28;;;18.91;69.14
28921;BME280;16035;53.594;9.952;2023-08-21T01:43:12;102176.84;;;18.89;69.12
28921;BME280;16035;53.594;9.952;2023-08-21T01:45:12;102179.84;;;18.88;69.42
28921;BME280;16035;53.594;9.952;2023-08-21T01:47:12;102171.59;;;18.88;69.49
28921;BME280;16035;53.594;9.952;2023-08-21T01:49:13;102177.38;;;18.86;69.48
28921;BME280;16035;53.594;9.952;2023-08-21T01:51:13;102177.69;;;18.85;69.80
28921;BME280;16035;53.594;9.952;2023-08-21T01:53:14;102187.03;;;18.84;69.29
28921;BME280;16035;53.594;9.952;2023-08-21T01:55:14;102174.38;;;18.83;69.67
28921;BME280;16035;53.594;9.952;2023-08-21T01:57:14;102175.19;;;18.83;69.37
28921;BME280;16035;53.594;9.952;2023-08-21T01:59:16;102173.28;;;18.79;69.59
28921;BME280;16035;53.594;9.952;2023-08-21T02:01:17;102173.28;;;18.79;69.53
28921;BME280;16035;53.594;9.952;2023-08-21T02:03:18;102168.88;;;18.78;69.64
28921;BME280;16035;53.594;9.952;2023-08-21T02:05:19;102175.78;;;18.75;69.61
28921;BME280;16035;53.594;9.952;2023-08-21T02:07:19;102166.16;;;18.73;69.66
28921;BME280;16035;53.594;9.952;2023-08-21T02:09:19;102176.59;;;18.71;69.84
28921;BME280;16035;53.594;9.952;2023-08-21T02:11:20;102167.78;;;18.68;69.77
28921;BME280;16035;53.594;9.952;2023-08-21T02:13:20;102176.34;;;18.67;69.87
28921;BME280;16035;53.594;9.952;2023-08-21T02:15:20;102169.44;;;18.64;69.80
28921;BME280;16035;53.594;9.952;2023-08-21T02:17:22;102178.28;;;18.66;70.50
28921;BME280;16035;53.594;9.952;2023-08-21T02:19:22;102174.13;;;18.64;69.72
28921;BME280;16035;53.594;9.952;2023-08-21T02:21:22;102178.25;;;18.61;70.14
28921;BME280;16035;53.594;9.952;2023-08-21T02:23:23;102179.66;;;18.59;70.10
28921;BME280;16035;53.594;9.952;2023-08-21T02:25:24;102174.97;;;18.59;70.87
28921;BME280;16035;53.594;9.952;2023-08-21T02:27:30;102179.09;;;18.57;70.34
28921;BME280;16035;53.594;9.952;2023-08-21T02:29:31;102178.28;;;18.56;70.12
28921;BME280;16035;53.594;9.952;2023-08-21T02:31:31;102179.41;;;18.55;70.11
28921;BME280;16035;53.594;9.952;2023-08-21T02:33:31;102181.63;;;18.53;70.15
28921;BME280;16035;53.594;9.952;2023-08-21T02:35:32;102180.75;;;18.53;70.17
28921;BME280;16035;53.594;9.952;2023-08-21T02:37:32;102179.94;;;18.52;70.15
28921;BME280;16035;53.594;9.952;2023-08-21T02:39:32;102179.69;;;18.54;70.19
28921;BME280;16035;53.594;9.952;2023-08-21T02:41:33;102184.09;;;18.55;70.36
28921;BME280;16035;53.594;9.952;2023-08-21T02:43:33;102183.25;;;18.54;70.49
28921;BME280;16035;53.594;9.952;2023-08-21T02:45:34;102189.84;;;18.58;70.52
28921;BME280;16035;53.594;9.952;2023-08-21T02:47:38;102183.78;;;18.61;70.67
28921;BME280;16035;53.594;9.952;2023-08-21T02:49:39;102187.63;;;18.65;70.67
28921;BME280;16035;53.594;9.952;2023-08-21T02:51:39;102188.72;;;18.69;70.77
28921;BME280;16035;53.594;9.952;2023-08-21T02:53:39;102193.41;;;18.74;70.57
28921;BME280;16035;53.594;9.952;2023-08-21T02:55:40;102186.53;;;18.77;70.80
28921;BME280;16035;53.594;9.952;2023-08-21T02:57:40;102190.38;;;18.81;70.65
28921;BME280;16035;53.594;9.952;2023-08-21T02:59:40;102198.91;;;18.84;70.63
28921;BME280;16035;53.594;9.952;2023-08-21T03:01:41;102189.50;;;18.85;70.83
28921;BME280;16035;53.594;9.952;2023-08-21T03:03:41;102195.28;;;18.89;70.94
28921;BME280;16035;53.594;9.952;2023-08-21T03:05:42;102197.75;;;18.90;70.98
28921;BME280;16035;53.594;9.952;2023-08-21T03:07:42;102195.53;;;18.92;70.95
28921;BME280;16035;53.594;9.952;2023-08-21T03:09:45;102193.34;;;18.94;70.91
28921;BME280;16035;53.594;9.952;2023-08-21T03:11:46;102190.28;;;18.96;70.97
28921;BME280;16035;53.594;9.952;2023-08-21T03:13:46;102190.28;;;18.96;71.08
28921;BME280;16035;53.594;9.952;2023-08-21T03:15:46;102191.09;;;18.97;70.58
28921;BME280;16035;53.594;9.952;2023-08-21T03:17:47;102192.22;;;18.96;71.12
28921;BME280;16035;53.594;9.952;2023-08-21T03:19:47;102193.34;;;18.94;71.09
28921;BME280;16035;53.594;9.952;2023-08-21T03:21:47;102192.50;;;18.94;71.02
28921;BME280;16035;53.594;9.952;2023-08-21T03:23:48;102191.97;;;18.92;71.20
28921;BME280;16035;53.594;9.952;2023-08-21T03:25:48;102183.69;;;18.92;70.92
28921;BME280;16035;53.594;9.952;2023-08-21T03:27:48;102191.97;;;18.87;70.65
28921;BME280;16035;53.594;9.952;2023-08-21T03:29:49;102194.75;;;18.82;71.03
28921;BME280;16035;53.594;9.952;2023-08-21T03:31:53;102195.91;;;18.76;70.89
28921;BME280;16035;53.594;9.952;2023-08-21T03:33:54;102190.94;;;18.73;70.93
28921;BME280;16035;53.594;9.952;2023-08-21T03:35:54;102199.50;;;18.71;71.15
28921;BME280;16035;53.594;9.952;2023-08-21T03:37:55;102185.41;;;18.67;71.08
28921;BME280;16035;53.594;9.952;2023-08-21T03:39:55;102195.88;;;18.65;70.97
28921;BME280;16035;53.594;9.952;2023-08-21T03:41:56;102195.34;;;18.63;71.08
28921;BME280;16035;53.594;9.952;2023-08-21T03:43:56;102190.94;;;18.62;70.97
28921;BME280;16035;53.594;9.952;2023-08-21T03:45:56;102193.13;;;18.60;71.27
28921;BME280;16035;53.594;9.952;2023-08-21T03:47:56;102197.81;;;18.60;71.19
28921;BME280;16035;53.594;9.952;2023-08-21T03:49:57;102192.03;;;18.61;71.34
28921;BME280;16035;53.594;9.952;2023-08-21T03:51:57;102194.78;;;18.61;71.39
28921;BME280;16035;53.594;9.952;2023-08-21T03:53:58;102192.59;;;18.63;71.49
28921;BME280;16035;53.594;9.952;2023-08-21T03:55:58;102193.69;;;18.67;71.45
28921;BME280;16035;53.594;9.952;2023-08-21T03:57:58;102200.31;;;18.72;71.49
28921;BME280;16035;53.594;9.952;2023-08-21T03:59:58;102189.31;;;18.72;71.68
28921;BME280;16035;53.594;9.952;2023-08-21T04:01:59;102191.50;;;18.69;71.44
28921;BME280;16035;53.594;9.952;2023-08-21T04:03:59;102189.53;;;18.65;71.53
28921;BME280;16035;53.594;9.952;2023-08-21T04:06:01;102189.56;;;18.60;71.47
28921;BME280;16035;53.594;9.952;2023-08-21T04:08:01;102190.13;;;18.57;71.48
28921;BME280;16035;53.594;9.952;2023-08-21T04:10:01;102192.34;;;18.55;71.50
28921;BME280;16035;53.594;9.952;2023-08-21T04:12:02;102193.72;;;18.52;71.57
28921;BME280;16035;53.594;9.952;2023-08-21T04:14:02;102192.63;;;18.53;71.67
28921;BME280;16035;53.594;9.952;2023-08-21T04:16:03;102192.06;;;18.51;71.72
28921;BME280;16035;53.594;9.952;2023-08-21T04:18:04;102191.25;;;18.51;71.77
28921;BME280;16035;53.594;9.952;2023-08-21T04:20:05;102191.25;;;18.51;71.66
28921;BME280;16035;53.594;9.952;2023-08-21T04:22:05;102190.44;;;18.45;71.60
28921;BME280;16035;53.594;9.952;2023-08-21T04:24:06;102194.31;;;18.44;71.72
28921;BME280;16035;53.594;9.952;2023-08-21T04:26:07;102189.88;;;18.43;71.83
28921;BME280;16035;53.594;9.952;2023-08-21T04:28:07;102202.56;;;18.44;71.54
28921;BME280;16035;53.594;9.952;2023-08-21T04:30:09;102198.13;;;18.43;71.79
28921;BME280;16035;53.594;9.952;2023-08-21T04:32:09;102205.31;;;18.44;72.34
28921;BME280;16035;53.594;9.952;2023-08-21T04:34:09;102198.69;;;18.45;71.86
28921;BME280;16035;53.594;9.952;2023-08-21T04:36:16;102202.28;;;18.46;72.01
28921;BME280;16035;53.594;9.952;2023-08-21T04:38:17;102199.81;;;18.44;71.82
28921;BME280;16035;53.594;9.952;2023-08-21T04:40:17;102204.47;;;18.43;71.92
28921;BME280;16035;53.594;9.952;2023-08-21T04:42:21;102199.53;;;18.46;71.99
28921;BME280;16035;53.594;9.952;2023-08-21T04:44:22;102204.72;;;18.47;72.29
28921;BME280;16035;53.594;9.952;2023-08-21T04:46:22;102193.19;;;18.50;72.02
28921;BME280;16035;53.594;9.952;2023-08-21T04:48:22;102205.53;;;18.53;72.00
28921;BME280;16035;53.594;9.952;2023-08-21T04:50:23;102204.72;;;18.52;72.00
28921;BME280;16035;53.594;9.952;2023-08-21T04:52:24;102208.28;;;18.53;72.02
28921;BME280;16035;53.594;9.952;2023-08-21T04:54:24;102213.81;;;18.53;71.95
28921;BME280;16035;53.594;9.952;2023-08-21T04:56:25;102201.97;;;18.52;72.28
28921;BME280;16035;53.594;9.952;2023-08-21T04:58:26;102206.09;;;18.55;72.04
28921;BME280;16035;53.594;9.952;2023-08-21T05:00:26;102209.69;;;18.55;72.46
28921;BME280;16035;53.594;9.952;2023-08-21T05:02:26;102204.16;;;18.55;72.20
28921;BME280;16035;53.594;9.952;2023-08-21T05:04:27;102203.88;;;18.57;72.43
28921;BME280;16035;53.594;9.952;2023-08-21T05:06:27;102208.84;;;18.60;72.53
28921;BME280;16035;53.594;9.952;2023-08-21T05:08:27;102206.88;;;18.65;72.54
28921;BME280;16035;53.594;9.952;2023-08-21T05:10:27;102212.97;;;18.73;72.84
28921;BME280;16035;53.594;9.952;2023-08-21T05:12:28;102216.53;;;18.78;72.77
28921;BME280;16035;53.594;9.952;2023-08-21T05:14:28;102213.75;;;18.83;72.64
28921;BME280;16035;53.594;9.952;2023-08-21T05:16:28;102209.31;;;18.87;72.59
28921;BME280;16035;53.594;9.952;2023-08-21T05:18:29;102211.25;;;18.92;72.61
28921;BME280;16035;53.594;9.952;2023-08-21T05:20:29;102214.81;;;18.92;72.38
28921;BME280;16035;53.594;9.952;2023-08-21T05:22:29;102206.84;;;18.91;72.57
28921;BME280;16035;53.594;9.952;2023-08-21T05:24:30;102207.94;;;18.95;72.67
28921;BME280;16035;53.594;9.952;2023-08-21T05:26:31;102207.09;;;19.00;72.66
28921;BME280;16035;53.594;9.952;2023-08-21T05:28:31;102209.50;;;19.06;72.54
28921;BME280;16035;53.594;9.952;2023-08-21T05:30:32;102211.97;;;19.13;72.60
28921;BME280;16035;53.594;9.952;2023-08-21T05:32:33;102207.00;;;19.20;72.48
28921;BME280;16035;53.594;9.952;2023-08-21T05:34:33;102204.78;;;19.22;72.64
28921;BME280;16035;53.594;9.952;2023-08-21T05:36:33;102205.03;;;19.26;72.70
28921;BME280;16035;53.594;9.952;2023-08-21T05:38:34;102206.94;;;19.30;72.52
28921;BME280;16035;53.594;9.952;2023-08-21T05:40:34;102212.41;;;19.35;72.85
28921;BME280;16035;53.594;9.952;2023-08-21T05:42:34;102218.19;;;19.39;72.59
28921;BME280;16035;53.594;9.952;2023-08-21T05:44:34;102215.97;;;19.41;72.46
28921;BME280;16035;53.594;9.952;2023-08-21T05:46:35;102216.78;;;19.41;72.53
28921;BME280;16035;53.594;9.952;2023-08-21T05:48:35;102217.84;;;19.45;72.63
28921;BME280;16035;53.594;9.952;2023-08-21T05:50:36;102218.94;;;19.50;72.71
28921;BME280;16035;53.594;9.952;2023-08-21T05:52:37;102216.13;;;19.55;72.31
28921;BME280;16035;53.594;9.952;2023-08-21T05:54:37;102216.41;;;19.58;72.26
28921;BME280;16035;53.594;9.952;2023-08-21T05:56:37;102219.97;;;19.59;72.27
28921;BME280;16035;53.594;9.952;2023-08-21T05:58:38;102217.50;;;19.62;72.47
28921;BME280;16035;53.594;9.952;2023-08-21T06:00:38;102215.84;;;19.66;72.31
28921;BME280;16035;53.594;9.952;2023-08-21T06:02:39;102230.72;;;19.65;72.43
28921;BME280;16035;53.594;9.952;2023-08-21T06:04:42;102225.75;;;19.67;72.47
28921;BME280;16035;53.594;9.952;2023-08-21T06:06:43;102219.97;;;19.69;72.17
28921;BME280;16035;53.594;9.952;2023-08-21T06:08:43;102217.44;;;19.73;72.09
28921;BME280;16035;53.594;9.952;2023-08-21T06:10:44;102221.25;;;19.77;72.06
28921;BME280;16035;53.594;9.952;2023-08-21T06:12:44;102223.16;;;19.81;72.15
28921;BME280;16035;53.594;9.952;2023-08-21T06:14:44;102222.59;;;19.84;71.92
28921;BME280;16035;53.594;9.952;2023-08-21T06:16:45;102223.41;;;19.85;72.05
28921;BME280;16035;53.594;9.952;2023-08-21T06:18:45;102227.00;;;19.85;71.95
28921;BME280;16035;53.594;9.952;2023-08-21T06:20:45;102235.81;;;19.87;72.04
28921;BME280;16035;53.594;9.952;2023-08-21T06:22:46;102228.88;;;19.90;72.10
28921;BME280;16035;53.594;9.952;2023-08-21T06:24:46;102234.13;;;19.91;71.66
28921;BME280;16035;53.594;9.952;2023-08-21T06:26:47;102234.41;;;19.90;71.96
28921;BME280;16035;53.594;9.952;2023-08-21T06:28:47;102230.81;;;19.89;71.88
28921;BME280;16035;53.594;9.952;2023-08-21T06:30:56;102236.28;;;19.94;72.07
28921;BME280;16035;53.594;9.952;2023-08-21T06:33:03;102237.63;;;20.02;71.92
28921;BME280;16035;53.594;9.952;2023-08-21T06:35:04;102226.28;;;20.04;72.00
28921;BME280;16035;53.594;9.952;2023-08-21T06:37:04;102235.63;;;20.08;71.70
28921;BME280;16035;53.594;9.952;2023-08-21T06:39:05;102237.00;;;20.10;71.67
28921;BME280;16035;53.594;9.952;2023-08-21T06:41:05;102235.84;;;20.16;71.93
28921;BME280;16035;53.594;9.952;2023-08-21T06:43:05;102239.41;;;20.17;71.53
28921;BME280;16035;53.594;9.952;2023-08-21T06:45:06;102249.91;;;20.20;71.68
28921;BME280;16035;53.594;9.952;2023-08-21T06:47:08;102241.88;;;20.24;71.46
28921;BME280;16035;53.594;9.952;2023-08-21T06:49:08;102244.88;;;20.27;71.35
28921;BME280;16035;53.594;9.952;2023-08-21T06:51:09;102244.28;;;20.30;71.08
28921;BME280;16035;53.594;9.952;2023-08-21T06:53:10;102244.81;;;20.32;71.31
28921;BME280;16035;53.594;9.952;2023-08-21T06:55:10;102239.31;;;20.32;71.00
28921;BME280;16035;53.594;9.952;2023-08-21T06:57:11;102244.53;;;20.34;71.09
28921;BME280;16035;53.594;9.952;2023-08-21T06:59:11;102243.66;;;20.38;71.06
28921;BME280;16035;53.594;9.952;2023-08-21T07:01:11;102247.19;;;20.44;71.10
28921;BME280;16035;53.594;9.952;2023-08-21T07:03:12;102236.09;;;20.49;71.12
28921;BME280;16035;53.594;9.952;2023-08-21T07:05:12;102239.41;;;20.51;71.06
28921;BME280;16035;53.594;9.952;2023-08-21T07:07:14;102244.06;;;20.56;71.02
28921;BME280;16035;53.594;9.952;2023-08-21T07:09:14;102238.78;;;20.59;70.53
28921;BME280;16035;53.594;9.952;2023-08-21T07:11:14;102246.53;;;20.57;70.64
28921;BME280;16035;53.594;9.952;2023-08-21T07:13:17;102247.59;;;20.61;70.69
28921;BME280;16035;53.594;9.952;2023-08-21T07:15:18;102249.19;;;20.67;70.53
28921;BME280;16035;53.594;9.952;2023-08-21T07:17:18;102243.31;;;20.74;70.58
28921;BME280;16035;53.594;9.952;2023-08-21T07:19:19;102240.22;;;20.81;70.50
28921;BME280;16035;53.594;9.952;2023-08-21T07:21:19;102240.41;;;20.84;70.00
28921;BME280;16035;53.594;9.952;2023-08-21T07:23:19;102239.59;;;20.84;69.62
28921;BME280;16035;53.594;9.952;2023-08-21T07:25:20;102242.38;;;20.84;70.13
28921;BME280;16035;53.594;9.952;2023-08-21T07:27:20;102244.56;;;20.87;69.95
28921;BME280;16035;53.594;9.952;2023-08-21T07:29:20;102238.97;;;20.92;69.70
28921;BME280;16035;53.594;9.952;2023-08-21T07:31:20;102243.09;;;20.94;69.12
28921;BME280;16035;53.594;9.952;2023-08-21T07:33:21;102235.31;;;20.97;69.61
28921;BME280;16035;53.594;9.952;2023-08-21T07:35:21;102243.25;;;21.03;69.27
28921;BME280;16035;53.594;9.952;2023-08-21T07:37:22;102248.78;;;21.03;68.71
28921;BME280;16035;53.594;9.952;2023-08-21T07:39:22;102252.56;;;21.07;68.76
28921;BME280;16035;53.594;9.952;2023-08-21T07:41:22;102253.59;;;21.16;68.92
28921;BME280;16035;53.594;9.952;2023-08-21T07:43:23;102250.53;;;21.18;68.55
28921;BME280;16035;53.594;9.952;2023-08-21T07:45:23;102248.50;;;21.24;68.83
28921;BME280;16035;53.594;9.952;2023-08-21T07:47:23;102244.84;;;21.28;68.44
28921;BME280;16035;53.594;9.952;2023-08-21T07:49:24;102242.88;;;21.34;68.74
28921;BME280;16035;53.594;9.952;2023-08-21T07:51:24;102250.22;;;21.43;68.20
28921;BME280;16035;53.594;9.952;2023-08-21T07:53:25;102247.91;;;21.51;68.41
28921;BME280;16035;53.594;9.952;2023-08-21T07:55:26;102247.47;;;21.62;68.15
28921;BME280;16035;53.594;9.952;2023-08-21T07:57:27;102257.31;;;21.68;67.78
28921;BME280;16035;53.594;9.952;2023-08-21T07:59:28;102245.44;;;21.68;67.66
28921;BME280;16035;53.594;9.952;2023-08-21T08:01:28;102241.41;;;21.79;68.14
28921;BME280;16035;53.594;9.952;2023-08-21T08:03:29;102252.22;;;21.94;67.55
28921;BME280;16035;53.594;9.952;2023-08-21T08:05:29;102245.84;;;22.13;67.65
28921;BME280;16035;53.594;9.952;2023-08-21T08:07:29;102247.09;;;22.20;67.13
28921;BME280;16035;53.594;9.952;2023-08-21T08:09:30;102246.91;;;22.31;66.40
28921;BME280;16035;53.594;9.952;2023-08-21T08:11:30;102237.00;;;22.43;66.38
28921;BME280;16035;53.594;9.952;2023-08-21T08:13:31;102241.44;;;22.72;66.16
28921;BME280;16035;53.594;9.952;2023-08-21T08:15:32;102245.19;;;22.95;65.97
28921;BME280;16035;53.594;9.952;2023-08-21T08:17:34;102245.41;;;23.35;64.85
28921;BME280;16035;53.594;9.952;2023-08-21T08:19:34;102242.94;;;23.47;64.41
28921;BME280;16035;53.594;9.952;2023-08-21T08:21:34;102251.53;;;23.59;64.16
28921;BME280;16035;53.594;9.952;2023-08-21T08:23:35;102246.31;;;23.72;63.09
28921;BME280;16035;53.594;9.952;2023-08-21T08:25:35;102239.81;;;23.99;63.34
28921;BME280;16035;53.594;9.952;2023-08-21T08:27:36;102243.75;;;24.06;62.25
28921;BME280;16035;53.594;9.952;2023-08-21T08:29:37;102240.94;;;23.98;62.21
28921;BME280;16035;53.594;9.952;2023-08-21T08:31:37;102251.59;;;24.04;62.60
28921;BME280;16035;53.594;9.952;2023-08-21T08:33:39;102240.66;;;24.30;61.80
28921;BME280;16035;53.594;9.952;2023-08-21T08:35:39;102248.47;;;24.51;61.26
28921;BME280;16035;53.594;9.952;2023-08-21T08:37:41;102245.56;;;24.56;59.77
28921;BME280;16035;53.594;9.952;2023-08-21T08:39:42;102242.06;;;24.81;59.84
28921;BME280;16035;53.594;9.952;2023-08-21T08:41:56;102237.97;;;25.27;57.82
28921;BME280;16035;53.594;9.952;2023-08-21T08:43:58;102244.53;;;25.57;56.83
28921;BME280;16035;53.594;9.952;2023-08-21T08:46:00;102251.63;;;25.81;57.17
28921;BME280;16035;53.594;9.952;2023-08-21T08:48:04;102243.41;;;26.02;56.25
28921;BME280;16035;53.594;9.952;2023-08-21T08:50:07;102233.63;;;26.42;56.62
28921;BME280;16035;53.594;9.952;2023-08-21T08:52:09;102250.06;;;26.82;54.73
28921;BME280;16035;53.594;9.952;2023-08-21T08:54:11;102243.06;;;27.56;54.47
28921;BME280;16035;53.594;9.952;2023-08-21T08:56:12;102241.38;;;28.18;53.15
28921;BME280;16035;53.594;9.952;2023-08-21T08:58:12;102235.53;;;28.56;51.31
28921;BME280;16035;53.594;9.952;2023-08-21T09:00:13;102226.78;;;28.70;49.93
28921;BME280;16035;53.594;9.952;2023-08-21T09:02:15;102231.81;;;28.89;50.29
28921;BME280;16035;53.594;9.952;2023-08-21T09:04:15;102235.66;;;29.09;48.89
28921;BME280;16035;53.594;9.952;2023-08-21T09:06:16;102234.53;;;29.50;48.89
28921;BME280;16035;53.594;9.952;2023-08-21T09:08:16;102234.13;;;29.24;47.21
28921;BME280;16035;53.594;9.952;2023-08-21T09:10:17;102231.56;;;29.71;48.36
28921;BME280;16035;53.594;9.952;2023-08-21T09:12:17;102245.78;;;28.52;44.51
28921;BME280;16035;53.594;9.952;2023-08-21T09:14:26;102239.88;;;29.03;46.61
28921;BME280;16035;53.594;9.952;2023-08-21T09:16:26;102240.66;;;29.28;46.07
28921;BME280;16035;53.594;9.952;2023-08-21T09:18:27;102243.50;;;29.03;44.15
28921;BME280;16035;53.594;9.952;2023-08-21T09:20:27;102248.03;;;29.73;46.52
28921;BME280;16035;53.594;9.952;2023-08-21T09:22:27;102242.59;;;30.08;45.97
28921;BME280;16035;53.594;9.952;2023-08-21T09:24:28;102243.66;;;29.47;43.21
28921;BME280;16035;53.594;9.952;2023-08-21T09:26:31;102251.69;;;29.61;45.28
28921;BME280;16035;53.594;9.952;2023-08-21T09:28:32;102246.97;;;28.88;45.13
28921;BME280;16035;53.594;9.952;2023-08-21T09:32:56;102229.13;;;29.69;44.12
28921;BME280;16035;53.594;9.952;2023-08-21T09:34:57;102235.25;;;29.87;43.52
28921;BME280;16035;53.594;9.952;2023-08-21T09:36:57;102241.66;;;29.48;44.01
28921;BME280;16035;53.594;9.952;2023-08-21T09:38:57;102233.69;;;28.73;43.88
28921;BME280;16035;53.594;9.952;2023-08-21T09:40:58;102235.72;;;29.49;45.16
28921;BME280;16035;53.594;9.952;2023-08-21T09:42:59;102236.31;;;29.83;43.97
28921;BME280;16035;53.594;9.952;2023-08-21T09:45:00;102239.25;;;30.62;43.90
28921;BME280;16035;53.594;9.952;2023-08-21T09:47:00;102228.97;;;31.17;43.52
28921;BME280;16035;53.594;9.952;2023-08-21T09:49:01;102227.94;;;30.58;41.58
28921;BME280;16035;53.594;9.952;2023-08-21T09:51:03;102226.69;;;30.71;40.17
28921;BME280;16035;53.594;9.952;2023-08-21T09:53:05;102228.03;;;30.30;38.16
28921;BME280;16035;53.594;9.952;2023-08-21T09:55:06;102237.75;;;31.15;41.30
28921;BME280;16035;53.594;9.952;2023-08-21T09:57:07;102230.09;;;31.12;38.90
28921;BME280;16035;53.594;9.952;2023-08-21T09:59:07;102224.22;;;31.76;39.94
28921;BME280;16035;53.594;9.952;2023-08-21T10:01:09;102223.91;;;32.00;39.61
28921;BME280;16035;53.594;9.952;2023-08-21T10:03:17;102233.19;;;32.24;39.40
28921;BME280;16035;53.594;9.952;2023-08-21T10:05:19;102228.44;;;32.28;38.54
28921;BME280;16035;53.594;9.952;2023-08-21T10:07:21;102222.16;;;32.34;38.08
28921;BME280;16035;53.594;9.952;2023-08-21T10:09:23;102222.88;;;32.51;38.60
28921;BME280;16035;53.594;9.952;2023-08-21T10:11:24;102223.84;;;32.88;38.91
28921;BME280;16035;53.594;9.952;2023-08-21T10:13:25;102222.06;;;33.00;37.82
28921;BME280;16035;53.594;9.952;2023-08-21T10:15:28;102233.03;;;33.08;36.39
28921;BME280;16035;53.594;9.952;2023-08-21T10:17:30;102224.41;;;33.24;37.15
28921;BME280;16035;53.594;9.952;2023-08-21T10:19:31;102225.22;;;33.25;36.23
28921;BME280;16035;53.594;9.952;2023-08-21T10:21:35;102221.13;;;33.49;35.39
28921;BME280;16035;53.594;9.952;2023-08-21T10:23:37;102226.25;;;33.43;36.07
28921;BME280;16035;53.594;9.952;2023-08-21T10:25:41;102221.13;;;33.49;34.75
28921;BME280;16035;53.594;9.952;2023-08-21T10:27:43;102214.72;;;33.52;35.67
28921;BME280;16035;53.594;9.952;2023-08-21T10:29:56;102223.06;;;33.14;33.27
28921;BME280;16035;53.594;9.952;2023-08-21T10:32:04;102219.44;;;33.14;34.89
28921;BME280;16035;53.594;9.952;2023-08-21T10:34:14;102224.63;;;33.42;35.59
28921;BME280;16035;53.594;9.952;2023-08-21T10:37:02;102222.88;;;32.77;33.74
28921;BME280;16035;53.594;9.952;2023-08-21T10:39:00;102229.13;;;32.21;36.10
28921;BME280;16035;53.594;9.952;2023-08-21T10:41:06;102230.34;;;31.81;36.31